createdAt,value
2019-02-27T00:01:54.015Z,75.00
2019-02-27T00:04:24.115Z,75.02
2019-02-27T00:06:54.223Z,75.04
2019-02-27T00:09:24.343Z,75.12
2019-02-27T00:11:54.383Z,74.69
2019-02-27T00:14:24.496Z,74.48
2019-02-27T00:16:54.605Z,75.29
2019-02-27T00:19:24.671Z,74.33
2019-02-27T00:21:54.679Z,74.27
2019-02-27T00:24:27.061Z,74.38
2019-02-27T00:26:59.551Z,75.08
2019-02-27T00:29:29.786Z,75.53
2019-02-27T00:31:59.820Z,75.41
2019-02-27T00:34:32.786Z,75.18
2019-02-27T00:37:01.599Z,75.52
2019-02-27T00:39:32.691Z,75.28
2019-02-27T00:42:02.699Z,75.20
2019-02-27T00:44:34.729Z,75.43
2019-02-27T00:47:04.970Z,75.49
2019-02-27T00:49:35.415Z,75.34
2019-02-27T00:52:05.437Z,75.93
2019-02-27T00:54:35.509Z,75.79
2019-02-27T00:57:05.524Z,76.09
2019-02-27T00:59:35.564Z,76.11
2019-02-27T01:02:05.613Z,76.41
2019-02-27T01:04:35.719Z,76.65
2019-02-27T01:07:05.809Z,76.69
2019-02-27T01:09:39.576Z,76.63
2019-02-27T01:12:10.730Z,76.94
2019-02-27T01:14:40.831Z,76.83
2019-02-27T01:17:11.014Z,76.54
2019-02-27T01:19:42.918Z,76.47
2019-02-27T01:22:13.501Z,76.38
2019-02-27T01:24:43.682Z,76.90
2019-02-27T01:27:13.745Z,76.88
2019-02-27T01:29:43.821Z,77.01
2019-02-27T01:32:13.990Z,77.12
2019-02-27T01:34:45.022Z,76.50
2019-02-27T01:37:15.082Z,77.38
2019-02-27T01:39:45.422Z,77.76
2019-02-27T01:42:15.488Z,76.75
2019-02-27T01:44:46.527Z,77.07
2019-02-27T01:47:17.550Z,77.30
2019-02-27T01:49:49.186Z,77.74
2019-02-27T01:52:19.496Z,77.72
2019-02-27T01:54:49.620Z,77.70
2019-02-27T01:57:19.621Z,77.58
2019-02-27T01:59:50.429Z,77.43
2019-02-27T02:02:20.987Z,77.60
2019-02-27T02:04:53.726Z,77.52
2019-02-27T02:07:22.798Z,78.03
2019-02-27T02:09:55.032Z,77.64
2019-02-27T02:12:28.447Z,78.06
2019-02-27T02:15:19.657Z,77.61
2019-02-27T02:18:25.909Z,77.94
2019-02-27T02:21:28.370Z,77.47
2019-02-27T02:24:44.142Z,77.57
2019-02-27T02:27:42.107Z,77.63
2019-02-27T02:30:52.588Z,78.23
2019-02-27T02:33:35.921Z,78.57
2019-02-27T02:36:46.668Z,78.36
2019-02-27T02:39:54.283Z,78.28
2019-02-27T02:43:04.076Z,79.11
2019-02-27T02:45:49.551Z,78.83
2019-02-27T02:48:41.190Z,79.04
2019-02-27T02:51:49.662Z,79.08
2019-02-27T02:55:13.552Z,78.71
2019-02-27T02:58:18.719Z,78.61
2019-02-27T03:00:53.765Z,79.20
2019-02-27T03:03:41.918Z,78.99
2019-02-27T03:06:56.826Z,78.82
2019-02-27T03:10:08.269Z,79.06
2019-02-27T03:13:17.410Z,78.83
2019-02-27T03:15:56.423Z,79.44
2019-02-27T03:19:05.084Z,79.57
2019-02-27T03:22:12.435Z,79.92
2019-02-27T03:25:16.070Z,79.47
2019-02-27T03:28:23.883Z,79.62
2019-02-27T03:31:18.503Z,79.35
2019-02-27T03:34:48.174Z,79.60
2019-02-27T03:37:30.987Z,80.00
2019-02-27T03:40:45.133Z,80.28
2019-02-27T03:44:05.822Z,80.23
2019-02-27T03:47:22.859Z,79.94
2019-02-27T03:50:29.734Z,79.84
2019-02-27T03:53:37.615Z,80.20
2019-02-27T03:56:56.715Z,80.39
2019-02-27T03:59:50.102Z,79.34
2019-02-27T04:02:41.897Z,79.95
2019-02-27T04:05:31.192Z,79.71
2019-02-27T04:08:48.113Z,79.87
2019-02-27T04:11:18.125Z,80.08
2019-02-27T04:13:48.160Z,78.94
2019-02-27T04:16:18.234Z,79.27
2019-02-27T04:18:48.243Z,79.33
2019-02-27T04:21:21.967Z,79.37
2019-02-27T04:23:49.978Z,80.21
2019-02-27T04:26:19.980Z,79.53
2019-02-27T04:28:49.991Z,79.52
2019-02-27T04:31:20.035Z,79.97
2019-02-27T04:33:50.069Z,79.47
2019-02-27T04:36:20.152Z,79.02
2019-02-27T04:38:50.212Z,79.32
2019-02-27T04:41:20.230Z,79.98
2019-02-27T04:43:50.305Z,79.99
2019-02-27T04:46:21.735Z,80.44
2019-02-27T04:48:52.142Z,80.26
2019-02-27T04:51:22.149Z,79.96
2019-02-27T04:53:52.194Z,80.07
2019-02-27T04:56:23.326Z,80.01
2019-02-27T04:58:53.898Z,80.37
2019-02-27T05:01:23.896Z,79.87
2019-02-27T05:03:53.906Z,80.29
2019-02-27T05:06:23.918Z,80.31
2019-02-27T05:08:53.963Z,79.61
2019-02-27T05:11:23.966Z,79.96
2019-02-27T05:13:54.830Z,80.42
2019-02-27T05:16:24.861Z,80.50
2019-02-27T05:18:54.873Z,80.70
2019-02-27T05:21:24.926Z,80.85
2019-02-27T05:23:55.014Z,80.69
2019-02-27T05:26:27.277Z,80.64
2019-02-27T05:28:56.798Z,80.39
2019-02-27T05:31:26.741Z,81.14
2019-02-27T05:33:56.776Z,81.12
2019-02-27T05:36:29.017Z,81.82
2019-02-27T05:38:58.618Z,81.38
2019-02-27T05:41:32.989Z,81.11
2019-02-27T05:44:00.356Z,81.18
2019-02-27T05:46:30.360Z,80.76
2019-02-27T05:49:00.376Z,80.72
2019-02-27T05:51:30.381Z,80.57
2019-02-27T05:54:00.378Z,80.13
2019-02-27T05:56:30.476Z,80.72
2019-02-27T05:59:00.479Z,80.82
2019-02-27T06:01:30.494Z,81.17
2019-02-27T06:04:00.658Z,80.94
2019-02-27T06:06:30.775Z,80.67
2019-02-27T06:09:00.823Z,80.92
2019-02-27T06:11:33.041Z,81.28
2019-02-27T06:14:02.546Z,81.19
2019-02-27T06:16:37.104Z,81.59
2019-02-27T06:19:04.514Z,81.75
2019-02-27T06:21:34.534Z,81.08
2019-02-27T06:24:04.535Z,81.24
2019-02-27T06:26:34.553Z,81.27
2019-02-27T06:29:04.563Z,81.39
2019-02-27T06:31:38.863Z,82.22
2019-02-27T06:34:06.269Z,82.36
2019-02-27T06:36:36.295Z,81.68
2019-02-27T06:39:08.729Z,81.81
2019-02-27T06:41:39.924Z,81.77
2019-02-27T06:44:09.946Z,81.46
2019-02-27T06:46:39.973Z,81.69
2019-02-27T06:49:09.991Z,81.51
2019-02-27T06:51:39.985Z,81.99
2019-02-27T06:54:09.977Z,81.58
2019-02-27T06:56:40.011Z,81.40
2019-02-27T06:59:10.006Z,81.53
2019-02-27T07:01:40.045Z,82.39
2019-02-27T07:04:10.132Z,82.50
2019-02-27T07:06:40.143Z,82.23
2019-02-27T07:09:11.634Z,82.94
2019-02-27T07:11:45.005Z,83.02
2019-02-27T07:14:13.597Z,82.51
2019-02-27T07:16:43.685Z,82.31
2019-02-27T07:19:15.843Z,82.05
2019-02-27T07:21:45.413Z,82.22
2019-02-27T07:24:15.425Z,82.12
2019-02-27T07:26:47.578Z,82.40
2019-02-27T07:29:21.697Z,82.53
2019-02-27T07:31:49.599Z,82.17
2019-02-27T07:34:20.673Z,82.73
2019-02-27T07:36:50.715Z,82.97
2019-02-27T07:39:20.781Z,82.72
2019-02-27T07:41:50.802Z,82.64
2019-02-27T07:44:20.875Z,82.76
2019-02-27T07:46:50.918Z,82.67
2019-02-27T07:49:20.925Z,82.22
2019-02-27T07:51:50.943Z,82.80
2019-02-27T07:54:20.972Z,83.30
2019-02-27T07:56:51.028Z,83.69
2019-02-27T07:59:21.016Z,83.20
2019-02-27T08:01:51.063Z,82.56
2019-02-27T08:04:22.977Z,83.54
2019-02-27T08:06:52.904Z,83.67
2019-02-27T08:09:22.917Z,84.10
2019-02-27T08:11:53.869Z,84.45
2019-02-27T08:14:23.883Z,83.60
2019-02-27T08:16:57.111Z,83.39
2019-02-27T08:19:25.661Z,83.91
2019-02-27T08:21:55.859Z,85.40
2019-02-27T08:24:25.938Z,84.20
2019-02-27T08:26:55.988Z,83.80
2019-02-27T08:29:26.084Z,82.86
2019-02-27T08:31:56.123Z,83.80
2019-02-27T08:34:26.173Z,84.13
2019-02-27T08:36:56.189Z,85.23
2019-02-27T08:39:26.267Z,85.53
2019-02-27T08:41:56.286Z,83.89
2019-02-27T08:44:26.363Z,87.45
2019-02-27T08:46:56.398Z,87.51
2019-02-27T08:49:26.535Z,88.96
2019-02-27T08:51:56.870Z,88.34
2019-02-27T08:54:26.961Z,89.41
2019-02-27T08:56:57.062Z,88.60
2019-02-27T08:59:27.094Z,87.79
2019-02-27T09:01:57.184Z,87.51
2019-02-27T09:04:27.258Z,87.06
2019-02-27T09:07:02.216Z,86.30
2019-02-27T09:09:29.110Z,85.87
2019-02-27T09:11:59.102Z,85.25
2019-02-27T09:14:29.146Z,86.00
2019-02-27T09:16:59.270Z,85.44
2019-02-27T09:19:29.362Z,84.98
2019-02-27T09:21:59.937Z,84.31
2019-02-27T09:24:31.157Z,84.19
2019-02-27T09:27:01.355Z,85.13
2019-02-27T09:29:31.486Z,84.46
2019-02-27T09:32:01.521Z,84.56
2019-02-27T09:34:31.715Z,82.42
2019-02-27T09:37:01.856Z,81.42
2019-02-27T09:39:31.990Z,81.36
2019-02-27T09:42:02.076Z,79.59
2019-02-27T09:44:36.355Z,79.30
2019-02-27T09:47:03.912Z,77.91
2019-02-27T09:49:33.976Z,75.88
2019-02-27T09:52:04.050Z,75.27
2019-02-27T09:54:34.144Z,75.62
2019-02-27T09:57:04.213Z,75.45
2019-02-27T09:59:34.259Z,72.28
2019-02-27T10:02:06.262Z,70.87
2019-02-27T10:04:36.161Z,70.94
2019-02-27T10:07:06.220Z,66.98
2019-02-27T10:09:36.318Z,65.81
2019-02-27T10:12:06.372Z,68.06
2019-02-27T10:14:36.435Z,67.53
2019-02-27T10:17:09.131Z,66.01
2019-02-27T10:19:39.143Z,67.03
2019-02-27T10:22:09.221Z,66.59
2019-02-27T10:24:39.318Z,64.16
2019-02-27T10:27:09.370Z,67.28
2019-02-27T10:29:39.470Z,66.71
2019-02-27T10:32:09.546Z,65.76
2019-02-27T10:34:39.674Z,65.72
2019-02-27T10:37:12.907Z,65.23
2019-02-27T10:39:41.463Z,66.53
2019-02-27T10:42:11.540Z,63.83
2019-02-27T10:44:41.586Z,64.13
2019-02-27T10:47:11.725Z,63.25
2019-02-27T10:49:41.829Z,64.81
2019-02-27T10:52:11.909Z,63.08
2019-02-27T10:54:42.003Z,62.46
2019-02-27T10:57:12.326Z,61.79
2019-02-27T10:59:42.424Z,61.48
2019-02-27T11:02:13.305Z,62.64
2019-02-27T11:04:43.513Z,58.16
2019-02-27T11:07:15.929Z,55.11
2019-02-27T11:09:45.545Z,53.96
2019-02-27T11:12:15.603Z,53.69
2019-02-27T11:14:45.724Z,54.38
2019-02-27T11:17:15.866Z,55.49
2019-02-27T11:19:45.929Z,56.46
2019-02-27T11:22:16.072Z,57.59
2019-02-27T11:24:48.979Z,54.80
2019-02-27T11:27:17.889Z,53.95
2019-02-27T11:29:48.129Z,54.06
2019-02-27T11:32:23.061Z,55.45
2019-02-27T11:34:50.106Z,55.12
2019-02-27T11:37:20.185Z,54.08
2019-02-27T11:39:50.284Z,55.68
2019-02-27T11:42:20.328Z,54.44
2019-02-27T11:44:50.450Z,58.39
2019-02-27T11:47:20.600Z,54.85
2019-02-27T11:49:50.647Z,55.59
2019-02-27T11:52:20.724Z,58.75
2019-02-27T11:54:50.791Z,59.74
2019-02-27T11:57:20.861Z,58.62
2019-02-27T11:59:50.919Z,57.17
2019-02-27T12:02:28.789Z,56.96
2019-02-27T12:04:55.367Z,55.74
2019-02-27T12:07:24.723Z,54.68
2019-02-27T12:09:54.829Z,52.46
2019-02-27T12:12:24.853Z,47.42
2019-02-27T12:14:54.893Z,49.33
2019-02-27T12:17:25.714Z,47.40
2019-02-27T12:19:56.005Z,44.19
2019-02-27T12:22:26.021Z,46.76
2019-02-27T12:24:56.175Z,44.48
2019-02-27T12:27:47.771Z,39.02
2019-02-27T12:30:00.103Z,38.03
2019-02-27T12:32:29.747Z,39.07
2019-02-27T12:34:59.919Z,38.74
2019-02-27T12:37:33.876Z,37.40
2019-02-27T12:40:01.650Z,37.90
2019-02-27T12:42:37.263Z,36.90
2019-02-27T12:45:03.471Z,35.31
2019-02-27T12:47:33.532Z,36.41
2019-02-27T12:50:03.573Z,36.40
2019-02-27T12:52:33.629Z,36.47
2019-02-27T12:55:03.721Z,35.57
2019-02-27T12:57:33.791Z,35.17
2019-02-27T13:00:05.746Z,34.42
2019-02-27T13:02:35.996Z,33.56
2019-02-27T13:05:07.055Z,34.84
2019-02-27T13:07:37.101Z,35.77
2019-02-27T13:10:09.473Z,34.94
2019-02-27T13:12:39.505Z,36.18
2019-02-27T13:15:10.317Z,36.91
2019-02-27T13:17:40.369Z,36.23
2019-02-27T13:20:13.733Z,36.15
2019-02-27T13:22:43.776Z,36.39
2019-02-27T13:25:13.823Z,36.39
2019-02-27T13:27:43.985Z,36.80
2019-02-27T13:30:16.273Z,35.16
2019-02-27T13:32:46.361Z,36.01
2019-02-27T13:35:16.486Z,36.03
2019-02-27T13:37:46.532Z,36.05
2019-02-27T13:40:17.872Z,36.05
2019-02-27T13:42:52.382Z,35.72
2019-02-27T13:45:21.903Z,36.11
2019-02-27T13:47:52.019Z,35.27
2019-02-27T13:50:25.685Z,36.55
2019-02-27T13:52:54.202Z,36.55
2019-02-27T13:55:24.345Z,36.19
2019-02-27T13:57:58.861Z,35.78
2019-02-27T14:00:28.083Z,35.78
2019-02-27T14:02:58.179Z,32.92
2019-02-27T14:05:29.513Z,32.02
2019-02-27T14:07:59.714Z,29.69
2019-02-27T14:10:29.863Z,29.69
2019-02-27T14:12:59.873Z,29.81
2019-02-27T14:15:31.617Z,30.28
2019-02-27T14:18:01.771Z,29.85
2019-02-27T14:20:31.868Z,29.68
2019-02-27T14:23:01.885Z,30.53
2019-02-27T14:25:33.179Z,30.86
2019-02-27T14:28:03.525Z,30.46
2019-02-27T14:30:36.665Z,30.64
2019-02-27T14:33:06.705Z,30.44
2019-02-27T14:35:36.790Z,30.49
2019-02-27T14:38:06.791Z,30.73
2019-02-27T14:40:39.509Z,31.60
2019-02-27T14:43:08.574Z,32.46
2019-02-27T14:45:40.690Z,32.10
2019-02-27T14:48:10.415Z,31.90
2019-02-27T14:50:40.630Z,32.00
2019-02-27T14:53:10.668Z,32.22
2019-02-27T14:55:40.746Z,32.37
2019-02-27T14:58:10.810Z,33.02
2019-02-27T15:00:41.236Z,33.01
2019-02-27T15:03:11.252Z,33.62
2019-02-27T15:05:44.744Z,35.26
2019-02-27T15:08:13.016Z,36.05
2019-02-27T15:10:43.086Z,36.42
2019-02-27T15:13:13.113Z,37.56
2019-02-27T15:15:43.835Z,35.78
2019-02-27T15:18:14.448Z,35.49
2019-02-27T15:20:44.509Z,37.87
2019-02-27T15:23:14.584Z,36.72
2019-02-27T15:25:44.635Z,36.13
2019-02-27T15:28:14.854Z,36.00
2019-02-27T15:30:46.734Z,36.94
2019-02-27T15:33:29.791Z,38.29
2019-02-27T15:35:59.889Z,36.28
2019-02-27T15:38:29.919Z,36.65
2019-02-27T15:41:02.415Z,37.17
2019-02-27T15:43:33.470Z,37.14
2019-02-27T15:46:04.107Z,38.21
2019-02-27T15:48:34.155Z,37.54
2019-02-27T15:51:04.244Z,37.37
2019-02-27T15:53:34.270Z,37.84
2019-02-27T15:56:05.406Z,37.89
2019-02-27T15:58:36.986Z,38.22
2019-02-27T16:01:07.486Z,38.05
2019-02-27T16:03:37.542Z,37.91
2019-02-27T16:06:07.855Z,37.93
2019-02-27T16:08:37.980Z,37.19
2019-02-27T16:11:08.044Z,37.77
2019-02-27T16:13:38.105Z,38.56
2019-02-27T16:16:08.253Z,37.20
2019-02-27T16:18:38.297Z,37.41
2019-02-27T16:21:08.340Z,37.90
2019-02-27T16:23:38.413Z,37.23
2019-02-27T16:26:08.427Z,37.46
2019-02-27T16:28:38.511Z,38.17
2019-02-27T16:31:08.577Z,37.52
2019-02-27T16:33:38.627Z,38.47
2019-02-27T16:36:08.679Z,38.07
2019-02-27T16:38:41.132Z,37.60
2019-02-27T16:41:10.951Z,37.66
2019-02-27T16:43:41.011Z,37.87
2019-02-27T16:46:11.070Z,37.90
2019-02-27T16:48:41.140Z,39.01
2019-02-27T16:51:11.165Z,38.84
2019-02-27T16:53:41.198Z,38.87
2019-02-27T16:56:11.880Z,38.78
2019-02-27T16:58:43.271Z,38.92
2019-02-27T17:01:13.469Z,39.55
2019-02-27T17:03:45.184Z,40.37
2019-02-27T17:06:18.273Z,41.59
2019-02-27T17:08:47.205Z,41.58
2019-02-27T17:11:17.297Z,41.53
2019-02-27T17:13:49.410Z,42.94
2019-02-27T17:16:19.095Z,42.51
2019-02-27T17:18:49.143Z,43.33
2019-02-27T17:21:21.843Z,44.68
2019-02-27T17:23:50.966Z,44.21
2019-02-27T17:26:21.027Z,44.18
2019-02-27T17:28:51.513Z,44.92
2019-02-27T17:31:22.367Z,44.54
2019-02-27T17:33:52.431Z,46.27
2019-02-27T17:36:22.469Z,46.33
2019-02-27T17:38:52.555Z,46.28
2019-02-27T17:41:22.675Z,46.28
2019-02-27T17:43:52.777Z,46.79
2019-02-27T17:46:22.821Z,46.81
2019-02-27T17:48:53.244Z,46.81
2019-02-27T17:51:25.675Z,45.69
2019-02-27T17:53:59.025Z,46.54
2019-02-27T17:56:32.206Z,46.77
2019-02-27T17:59:08.619Z,47.44
2019-02-27T18:01:38.397Z,47.15
2019-02-27T18:04:08.568Z,47.59
2019-02-27T18:06:39.005Z,47.71
2019-02-27T18:09:12.908Z,47.40
2019-02-27T18:11:43.513Z,47.77
2019-02-27T18:14:13.991Z,48.39
2019-02-27T18:16:44.510Z,49.30
2019-02-27T18:19:16.664Z,49.60
2019-02-27T18:21:47.744Z,49.79
2019-02-27T18:24:18.161Z,50.25
2019-02-27T18:26:51.120Z,49.91
2019-02-27T18:29:21.852Z,49.93
2019-02-27T18:31:52.261Z,50.29
2019-02-27T18:34:22.807Z,50.64
2019-02-27T18:36:53.281Z,50.88
2019-02-27T18:39:25.735Z,51.30
2019-02-27T18:41:55.913Z,52.08
2019-02-27T18:44:26.434Z,52.86
2019-02-27T18:46:59.783Z,53.11
2019-02-27T18:49:28.770Z,53.25
2019-02-27T18:51:58.874Z,54.12
2019-02-27T18:54:29.096Z,54.04
2019-02-27T18:57:03.251Z,54.79
2019-02-27T18:59:40.598Z,55.30
2019-02-27T19:02:11.083Z,55.51
2019-02-27T19:04:41.600Z,56.18
2019-02-27T19:07:17.273Z,56.73
2019-02-27T19:09:47.068Z,56.88
2019-02-27T19:12:17.556Z,57.11
2019-02-27T19:14:47.724Z,57.12
2019-02-27T19:17:17.832Z,57.38
2019-02-27T19:19:48.944Z,57.50
2019-02-27T19:22:19.266Z,57.74
2019-02-27T19:24:49.376Z,57.79
2019-02-27T19:27:19.500Z,58.19
2019-02-27T19:29:49.550Z,58.09
2019-02-27T19:32:23.199Z,58.33
2019-02-27T19:34:52.718Z,58.59
2019-02-27T19:37:22.885Z,58.63
2019-02-27T19:39:53.377Z,58.55
2019-02-27T19:42:24.730Z,58.87
2019-02-27T19:44:54.825Z,59.16
2019-02-27T19:47:24.976Z,59.48
2019-02-27T19:49:55.085Z,59.48
2019-02-27T19:52:26.864Z,59.88
2019-02-27T19:54:56.960Z,59.95
2019-02-27T19:57:27.054Z,60.16
2019-02-27T19:59:59.092Z,60.43
2019-02-27T20:02:28.882Z,60.84
2019-02-27T20:04:58.936Z,61.01
2019-02-27T20:07:29.011Z,61.10
2019-02-27T20:09:59.139Z,61.54
2019-02-27T20:12:29.305Z,61.54
2019-02-27T20:14:59.382Z,61.65
2019-02-27T20:17:32.882Z,61.65
2019-02-27T20:20:04.142Z,61.61
2019-02-27T20:22:33.236Z,61.69
2019-02-27T20:25:03.298Z,61.96
2019-02-27T20:27:33.405Z,61.87
2019-02-27T20:30:03.655Z,62.02
2019-02-27T20:32:33.760Z,61.93
2019-02-27T20:35:03.797Z,62.08
2019-02-27T20:37:33.888Z,62.04
2019-02-27T20:40:04.168Z,62.30
2019-02-27T20:42:34.311Z,62.27
2019-02-27T20:45:04.628Z,62.40
2019-02-27T20:47:34.691Z,62.56
2019-02-27T20:50:05.281Z,62.49
2019-02-27T20:52:35.340Z,62.45
2019-02-27T20:55:05.555Z,62.61
2019-02-27T20:57:35.612Z,62.74
2019-02-27T21:00:06.690Z,62.68
2019-02-27T21:02:36.847Z,62.76
2019-02-27T21:05:09.519Z,62.82
2019-02-27T21:07:40.048Z,62.70
2019-02-27T21:10:19.984Z,62.88
2019-02-27T21:12:54.074Z,62.89
2019-02-27T21:15:18.210Z,62.96
2019-02-27T21:17:48.272Z,63.18
2019-02-27T21:20:18.448Z,63.32
2019-02-27T21:22:48.674Z,63.32
2019-02-27T21:25:18.920Z,63.41
2019-02-27T21:27:49.258Z,63.41
2019-02-27T21:30:19.554Z,63.37
2019-02-27T21:32:49.710Z,63.51
2019-02-27T21:35:19.876Z,63.49
2019-02-27T21:37:51.020Z,63.47
2019-02-27T21:40:21.224Z,63.42
2019-02-27T21:42:51.966Z,63.45
2019-02-27T21:45:22.131Z,63.78
2019-02-27T21:47:52.936Z,63.64
2019-02-27T21:50:23.142Z,63.74
2019-02-27T21:52:55.651Z,64.00
2019-02-27T21:55:25.310Z,63.88
2019-02-27T21:57:58.054Z,63.89
2019-02-27T22:00:28.811Z,64.04
2019-02-27T22:03:04.002Z,64.09
2019-02-27T22:05:30.552Z,64.03
2019-02-27T22:08:00.611Z,64.13
2019-02-27T22:10:30.655Z,64.04
2019-02-27T22:13:00.717Z,63.98
2019-02-27T22:15:30.763Z,64.14
2019-02-27T22:18:00.782Z,64.12
2019-02-27T22:20:30.798Z,64.28
2019-02-27T22:23:00.918Z,64.14
2019-02-27T22:25:31.267Z,64.26
2019-02-27T22:28:01.545Z,64.49
2019-02-27T22:30:31.976Z,64.50
2019-02-27T22:33:02.729Z,64.52
2019-02-27T22:35:37.365Z,64.77
2019-02-27T22:38:05.820Z,65.14
2019-02-27T22:40:37.997Z,65.13
2019-02-27T22:43:07.909Z,65.16
2019-02-27T22:45:40.476Z,65.36
2019-02-27T22:48:09.922Z,65.45
2019-02-27T22:50:41.249Z,65.53
2019-02-27T22:53:11.982Z,65.55
2019-02-27T22:55:43.043Z,65.91
2019-02-27T22:58:13.401Z,65.74
2019-02-27T23:01:05.565Z,65.97
2019-02-27T23:03:44.540Z,66.14
2019-02-27T23:06:14.832Z,66.48
2019-02-27T23:08:44.851Z,66.71
2019-02-27T23:11:15.005Z,66.60
2019-02-27T23:13:48.404Z,67.07
2019-02-27T23:16:20.024Z,67.14
2019-02-27T23:18:50.050Z,67.45
2019-02-27T23:21:20.095Z,67.94
2019-02-27T23:23:50.107Z,67.96
2019-02-27T23:26:20.984Z,68.50
2019-02-27T23:28:51.107Z,68.50
2019-02-27T23:31:23.313Z,68.72
2019-02-27T23:33:52.874Z,68.82
2019-02-27T23:36:22.952Z,69.08
2019-02-27T23:38:52.955Z,69.46
2019-02-27T23:41:23.852Z,69.56
2019-02-27T23:43:53.929Z,69.46
2019-02-27T23:46:24.037Z,70.21
2019-02-27T23:48:54.150Z,70.43
2019-02-27T23:51:24.292Z,71.41
2019-02-27T23:53:54.331Z,71.08
2019-02-27T23:56:24.452Z,71.51
2019-02-27T23:58:54.479Z,71.85
